sensor_id;sensor_type;location;lat;lon;timestamp;pressure;altitude;pressure_sealevel;temperature;humidity
74065;BME280;62421;51.412;5.432;2023-06-26T00:01:02;101105.31;;;20.71;97.62
74065;BME280;62421;51.412;5.432;2023-06-26T00:03:27;101103.06;;;20.58;97.31
74065;BME280;62421;51.412;5.432;2023-06-26T00:05:54;101112.78;;;20.53;97.57
74065;BME280;62421;51.412;5.432;2023-06-26T00:08:19;101103.06;;;20.50;97.85
74065;BME280;62421;51.412;5.432;2023-06-26T00:10:44;101106.63;;;20.51;94.33
74065;BME280;62421;51.412;5.432;2023-06-26T00:13:11;101103.91;;;20.51;96.38
74065;BME280;62421;51.412;5.432;2023-06-26T00:15:37;101112.25;;;20.49;96.61
74065;BME280;62421;51.412;5.432;2023-06-26T00:18:03;101103.22;;;20.49;95.58
74065;BME280;62421;51.412;5.432;2023-06-26T00:20:28;101107.81;;;20.48;96.59
74065;BME280;62421;51.412;5.432;2023-06-26T00:22:54;101097.06;;;20.46;96.28
74065;BME280;62421;51.412;5.432;2023-06-26T00:25:20;101095.19;;;20.47;95.01
74065;BME280;62421;51.412;5.432;2023-06-26T00:27:46;101102.38;;;20.48;95.84
74065;BME280;62421;51.412;5.432;2023-06-26T00:30:11;101095.03;;;20.49;95.87
74065;BME280;62421;51.412;5.432;2023-06-26T00:32:37;101108.50;;;20.50;95.32
74065;BME280;62421;51.412;5.432;2023-06-26T00:35:02;101100.13;;;20.52;95.02
74065;BME280;62421;51.412;5.432;2023-06-26T00:37:28;101100.31;;;20.50;96.02
74065;BME280;62421;51.412;5.432;2023-06-26T00:39:53;101103.22;;;20.49;95.34
74065;BME280;62421;51.412;5.432;2023-06-26T00:42:18;101107.81;;;20.48;95.33
74065;BME280;62421;51.412;5.432;2023-06-26T00:44:44;101099.94;;;20.45;95.61
74065;BME280;62421;51.412;5.432;2023-06-26T00:47:11;101103.88;;;20.42;95.25
74065;BME280;62421;51.412;5.432;2023-06-26T00:49:39;101111.19;;;20.42;96.01
74065;BME280;62421;51.412;5.432;2023-06-26T00:52:05;101108.47;;;20.42;93.79
74065;BME280;62421;51.412;5.432;2023-06-26T00:54:31;101102.88;;;20.52;88.72
74065;BME280;62421;51.412;5.432;2023-06-26T00:56:57;101107.03;;;20.64;88.77
74065;BME280;62421;51.412;5.432;2023-06-26T00:59:22;101105.31;;;20.71;86.91
74065;BME280;62421;51.412;5.432;2023-06-26T01:01:47;101114.03;;;20.75;87.54
74065;BME280;62421;51.412;5.432;2023-06-26T01:04:13;101112.69;;;20.79;84.72
74065;BME280;62421;51.412;5.432;2023-06-26T01:06:43;101111.50;;;20.81;84.57
74065;BME280;62421;51.412;5.432;2023-06-26T01:09:16;101114.06;;;20.83;85.56
74065;BME280;62421;51.412;5.432;2023-06-26T01:11:41;101119.84;;;20.88;82.50
74065;BME280;62421;51.412;5.432;2023-06-26T01:14:07;101124.13;;;20.91;82.51
74065;BME280;62421;51.412;5.432;2023-06-26T01:16:32;101126.00;;;20.90;82.69
74065;BME280;62421;51.412;5.432;2023-06-26T01:18:59;101120.69;;;20.89;81.14
74065;BME280;62421;51.412;5.432;2023-06-26T01:21:25;101123.78;;;20.85;81.25
74065;BME280;62421;51.412;5.432;2023-06-26T01:24:12;101122.25;;;20.83;81.88
74065;BME280;62421;51.412;5.432;2023-06-26T01:26:46;101124.81;;;20.84;80.85
74065;BME280;62421;51.412;5.432;2023-06-26T01:29:15;101122.56;;;20.80;80.32
74065;BME280;62421;51.412;5.432;2023-06-26T01:31:41;101119.00;;;20.79;79.97
74065;BME280;62421;51.412;5.432;2023-06-26T01:34:07;101124.59;;;20.78;78.91
74065;BME280;62421;51.412;5.432;2023-06-26T01:36:32;101125.66;;;20.77;79.13
74065;BME280;62421;51.412;5.432;2023-06-26T01:38:58;101124.78;;;20.76;79.49
74065;BME280;62421;51.412;5.432;2023-06-26T01:41:23;101124.09;;;20.74;78.19
74065;BME280;62421;51.412;5.432;2023-06-26T01:46:37;101139.25;;;20.69;78.53
74065;BME280;62421;51.412;5.432;2023-06-26T01:54:23;101143.53;;;20.71;75.25
74065;BME280;62421;51.412;5.432;2023-06-26T01:56:52;101152.56;;;20.63;75.78
74065;BME280;62421;51.412;5.432;2023-06-26T01:59:19;101158.16;;;20.62;75.28
74065;BME280;62421;51.412;5.432;2023-06-26T02:01:46;101159.66;;;20.56;75.72
74065;BME280;62421;51.412;5.432;2023-06-26T02:04:12;101164.75;;;20.51;75.73
74065;BME280;62421;51.412;5.432;2023-06-26T02:06:37;101176.50;;;20.43;75.00
74065;BME280;62421;51.412;5.432;2023-06-26T02:09:02;101179.69;;;20.39;75.09
74065;BME280;62421;51.412;5.432;2023-06-26T02:11:28;101174.72;;;20.34;75.10
74065;BME280;62421;51.412;5.432;2023-06-26T02:13:54;101173.88;;;20.34;74.18
74065;BME280;62421;51.412;5.432;2023-06-26T02:16:19;101167.19;;;20.28;75.40
74065;BME280;62421;51.412;5.432;2023-06-26T02:18:44;101169.56;;;20.23;76.10
74065;BME280;62421;51.412;5.432;2023-06-26T02:21:10;101169.03;;;20.19;75.46
74065;BME280;62421;51.412;5.432;2023-06-26T02:23:35;101179.59;;;20.14;75.78
74065;BME280;62421;51.412;5.432;2023-06-26T02:26:01;101162.53;;;20.12;76.40
74065;BME280;62421;51.412;5.432;2023-06-26T02:28:26;101167.13;;;20.12;75.89
74065;BME280;62421;51.412;5.432;2023-06-26T02:30:51;101167.13;;;20.12;76.11
74065;BME280;62421;51.412;5.432;2023-06-26T02:33:17;101171.19;;;20.08;76.75
74065;BME280;62421;51.412;5.432;2023-06-26T02:35:42;101170.66;;;20.04;77.14
74065;BME280;62421;51.412;5.432;2023-06-26T02:38:08;101170.50;;;20.05;76.74
74065;BME280;62421;51.412;5.432;2023-06-26T02:40:33;101172.88;;;20.00;77.43
74065;BME280;62421;51.412;5.432;2023-06-26T02:42:58;101172.50;;;19.95;78.10
74065;BME280;62421;51.412;5.432;2023-06-26T02:45:24;101177.56;;;19.90;78.39
74065;BME280;62421;51.412;5.432;2023-06-26T02:47:49;101172.44;;;19.87;78.22
74065;BME280;62421;51.412;5.432;2023-06-26T02:50:15;101176.81;;;19.80;78.63
74065;BME280;62421;51.412;5.432;2023-06-26T02:52:40;101187.16;;;19.76;79.70
74065;BME280;62421;51.412;5.432;2023-06-26T02:55:06;101191.22;;;19.72;79.47
74065;BME280;62421;51.412;5.432;2023-06-26T02:57:31;101200.56;;;19.70;79.25
74065;BME280;62421;51.412;5.432;2023-06-26T02:59:56;101198.63;;;19.62;80.33
74065;BME280;62421;51.412;5.432;2023-06-26T03:02:22;101202.69;;;19.58;80.43
74065;BME280;62421;51.412;5.432;2023-06-26T03:04:47;101199.41;;;19.54;80.49
74065;BME280;62421;51.412;5.432;2023-06-26T03:07:13;101206.03;;;19.52;82.52
74065;BME280;62421;51.412;5.432;2023-06-26T03:09:38;101207.03;;;19.51;80.98
74065;BME280;62421;51.412;5.432;2023-06-26T03:12:03;101205.19;;;19.51;81.07
74065;BME280;62421;51.412;5.432;2023-06-26T03:14:29;101212.31;;;19.52;81.01
74065;BME280;62421;51.412;5.432;2023-06-26T03:16:57;101214.19;;;19.52;81.90
74065;BME280;62421;51.412;5.432;2023-06-26T03:19:23;101210.22;;;19.46;82.24
74065;BME280;62421;51.412;5.432;2023-06-26T03:21:48;101213.78;;;19.47;82.34
74065;BME280;62421;51.412;5.432;2023-06-26T03:24:14;101217.69;;;19.44;82.66
74065;BME280;62421;51.412;5.432;2023-06-26T03:26:39;101220.88;;;19.39;83.35
74065;BME280;62421;51.412;5.432;2023-06-26T03:29:04;101224.09;;;19.35;83.91
74065;BME280;62421;51.412;5.432;2023-06-26T03:31:30;101218.97;;;19.32;84.27
74065;BME280;62421;51.412;5.432;2023-06-26T03:33:55;101219.66;;;19.34;84.43
74065;BME280;62421;51.412;5.432;2023-06-26T03:36:21;101217.94;;;19.33;84.48
74065;BME280;62421;51.412;5.432;2023-06-26T03:38:46;101221.97;;;19.29;85.12
74065;BME280;62421;51.412;5.432;2023-06-26T03:41:11;101216.69;;;19.27;85.43
74065;BME280;62421;51.412;5.432;2023-06-26T03:43:37;101227.56;;;19.27;85.53
74065;BME280;62421;51.412;5.432;2023-06-26T03:46:02;101230.63;;;19.24;86.30
74065;BME280;62421;51.412;5.432;2023-06-26T03:48:27;101226.00;;;19.24;86.34
74065;BME280;62421;51.412;5.432;2023-06-26T03:50:53;101223.28;;;19.24;86.81
74065;BME280;62421;51.412;5.432;2023-06-26T03:53:18;101223.63;;;19.21;87.51
74065;BME280;62421;51.412;5.432;2023-06-26T03:55:44;101229.22;;;19.20;88.88
74065;BME280;62421;51.412;5.432;2023-06-26T03:58:09;101236.53;;;19.19;88.72
74065;BME280;62421;51.412;5.432;2023-06-26T04:00:34;101232.78;;;19.20;89.31
74065;BME280;62421;51.412;5.432;2023-06-26T04:03:00;101242.97;;;19.18;90.24
74065;BME280;62421;51.412;5.432;2023-06-26T04:05:25;101241.13;;;19.19;90.62
74065;BME280;62421;51.412;5.432;2023-06-26T04:07:51;101244.69;;;19.19;90.83
74065;BME280;62421;51.412;5.432;2023-06-26T04:10:17;101248.13;;;19.21;91.02
74065;BME280;62421;51.412;5.432;2023-06-26T04:12:42;101255.44;;;19.21;91.50
74065;BME280;62421;51.412;5.432;2023-06-26T04:15:08;101256.28;;;19.21;92.20
74065;BME280;62421;51.412;5.432;2023-06-26T04:17:33;101258.69;;;19.24;91.53
74065;BME280;62421;51.412;5.432;2023-06-26T04:19:58;101275.44;;;19.30;91.78
74065;BME280;62421;51.412;5.432;2023-06-26T04:22:24;101268.50;;;19.35;90.82
74065;BME280;62421;51.412;5.432;2023-06-26T04:24:50;101270.59;;;19.41;91.18
74065;BME280;62421;51.412;5.432;2023-06-26T04:27:17;101276.44;;;19.47;90.89
74065;BME280;62421;51.412;5.432;2023-06-26T04:29:42;101279.41;;;19.53;91.28
74065;BME280;62421;51.412;5.432;2023-06-26T04:32:08;101281.75;;;19.66;90.49
74065;BME280;62421;51.412;5.432;2023-06-26T04:34:33;101267.50;;;19.90;90.21
74065;BME280;62421;51.412;5.432;2023-06-26T04:36:59;101285.59;;;20.43;87.21
74065;BME280;62421;51.412;5.432;2023-06-26T04:39:24;101280.63;;;21.07;84.20
74065;BME280;62421;51.412;5.432;2023-06-26T04:41:49;101277.34;;;21.71;81.36
74065;BME280;62421;51.412;5.432;2023-06-26T04:44:15;101277.13;;;22.22;78.15
74065;BME280;62421;51.412;5.432;2023-06-26T04:46:40;101283.41;;;22.63;76.87
74065;BME280;62421;51.412;5.432;2023-06-26T04:49:08;101287.13;;;22.79;75.03
74065;BME280;62421;51.412;5.432;2023-06-26T04:51:34;101291.56;;;22.80;74.38
74065;BME280;62421;51.412;5.432;2023-06-26T04:54:05;101298.78;;;22.64;74.29
74065;BME280;62421;51.412;5.432;2023-06-26T04:56:34;101290.69;;;22.23;76.20
74065;BME280;62421;51.412;5.432;2023-06-26T04:58:59;101303.16;;;21.93;77.69
74065;BME280;62421;51.412;5.432;2023-06-26T05:01:24;101306.22;;;22.06;77.36
74065;BME280;62421;51.412;5.432;2023-06-26T05:03:50;101307.53;;;22.68;75.75
74065;BME280;62421;51.412;5.432;2023-06-26T05:06:15;101309.66;;;23.37;71.96
74065;BME280;62421;51.412;5.432;2023-06-26T05:08:40;101300.50;;;23.44;69.74
74065;BME280;62421;51.412;5.432;2023-06-26T05:11:06;101307.09;;;23.04;71.26
74065;BME280;62421;51.412;5.432;2023-06-26T05:13:31;101303.44;;;22.56;73.14
74065;BME280;62421;51.412;5.432;2023-06-26T05:15:57;101303.50;;;22.15;75.14
74065;BME280;62421;51.412;5.432;2023-06-26T05:18:22;101315.09;;;22.00;75.59
74065;BME280;62421;51.412;5.432;2023-06-26T05:20:47;101308.44;;;22.52;74.53
74065;BME280;62421;51.412;5.432;2023-06-26T05:23:13;101317.94;;;23.20;70.70
74065;BME280;62421;51.412;5.432;2023-06-26T05:25:39;101320.22;;;23.17;69.86
74065;BME280;62421;51.412;5.432;2023-06-26T05:28:05;101320.38;;;22.67;71.75
74065;BME280;62421;51.412;5.432;2023-06-26T05:30:31;101319.19;;;22.45;72.17
74065;BME280;62421;51.412;5.432;2023-06-26T05:33:00;101320.44;;;22.90;71.19
74065;BME280;62421;51.412;5.432;2023-06-26T05:35:30;101327.84;;;23.52;68.71
74065;BME280;62421;51.412;5.432;2023-06-26T05:37:56;101335.13;;;24.15;65.88
74065;BME280;62421;51.412;5.432;2023-06-26T05:40:22;101328.63;;;24.30;63.55
74065;BME280;62421;51.412;5.432;2023-06-26T05:42:47;101337.34;;;23.73;65.00
74065;BME280;62421;51.412;5.432;2023-06-26T05:45:13;101338.19;;;23.11;67.07
74065;BME280;62421;51.412;5.432;2023-06-26T05:47:38;101333.06;;;22.52;69.66
74065;BME280;62421;51.412;5.432;2023-06-26T05:50:05;101340.91;;;22.06;71.71
74065;BME280;62421;51.412;5.432;2023-06-26T05:52:31;101342.41;;;21.67;74.14
74065;BME280;62421;51.412;5.432;2023-06-26T05:54:57;101346.44;;;21.39;74.16
74065;BME280;62421;51.412;5.432;2023-06-26T05:57:29;101347.47;;;21.03;76.34
74065;BME280;62421;51.412;5.432;2023-06-26T05:59:55;101352.88;;;20.87;77.69
74065;BME280;62421;51.412;5.432;2023-06-26T06:02:20;101358.28;;;20.79;77.73
74065;BME280;62421;51.412;5.432;2023-06-26T06:04:46;101369.53;;;20.76;78.60
74065;BME280;62421;51.412;5.432;2023-06-26T06:07:11;101367.13;;;20.73;78.20
74065;BME280;62421;51.412;5.432;2023-06-26T06:09:37;101360.59;;;20.65;78.71
74065;BME280;62421;51.412;5.432;2023-06-26T06:12:04;101367.59;;;20.68;79.47
74065;BME280;62421;51.412;5.432;2023-06-26T06:14:31;101363.53;;;20.72;78.32
74065;BME280;62421;51.412;5.432;2023-06-26T06:16:56;101366.56;;;20.69;78.01
74065;BME280;62421;51.412;5.432;2023-06-26T06:19:22;101385.47;;;20.62;77.89
74065;BME280;62421;51.412;5.432;2023-06-26T06:21:47;101386.78;;;20.58;78.82
74065;BME280;62421;51.412;5.432;2023-06-26T06:24:13;101380.94;;;20.53;78.92
74065;BME280;62421;51.412;5.432;2023-06-26T06:26:38;101394.38;;;20.46;79.40
74065;BME280;62421;51.412;5.432;2023-06-26T06:29:03;101396.72;;;20.41;81.79
74065;BME280;62421;51.412;5.432;2023-06-26T06:31:29;101398.28;;;20.44;80.00
74065;BME280;62421;51.412;5.432;2023-06-26T06:33:55;101406.28;;;20.45;79.70
74065;BME280;62421;51.412;5.432;2023-06-26T06:36:20;101395.53;;;20.44;80.51
74065;BME280;62421;51.412;5.432;2023-06-26T06:38:45;101396.72;;;20.41;80.04
74065;BME280;62421;51.412;5.432;2023-06-26T06:41:11;101392.97;;;20.42;78.69
74065;BME280;62421;51.412;5.432;2023-06-26T06:43:37;101398.06;;;20.37;79.97
74065;BME280;62421;51.412;5.432;2023-06-26T06:46:03;101400.78;;;20.37;79.27
74065;BME280;62421;51.412;5.432;2023-06-26T06:48:28;101408.47;;;20.42;78.33
74065;BME280;62421;51.412;5.432;2023-06-26T06:50:53;101415.16;;;20.48;78.53
74065;BME280;62421;51.412;5.432;2023-06-26T06:53:19;101420.69;;;20.56;78.25
74065;BME280;62421;51.412;5.432;2023-06-26T06:55:46;101413.44;;;20.64;78.39
74065;BME280;62421;51.412;5.432;2023-06-26T06:58:11;101421.69;;;20.73;77.13
74065;BME280;62421;51.412;5.432;2023-06-26T07:00:37;101420.91;;;20.80;75.28
74065;BME280;62421;51.412;5.432;2023-06-26T07:03:02;101430.84;;;20.90;76.45
74065;BME280;62421;51.412;5.432;2023-06-26T07:05:28;101436.84;;;20.93;75.52
74065;BME280;62421;51.412;5.432;2023-06-26T07:07:53;101441.34;;;21.02;75.95
74065;BME280;62421;51.412;5.432;2023-06-26T07:10:19;101448.53;;;21.12;74.32
74065;BME280;62421;51.412;5.432;2023-06-26T07:12:44;101450.47;;;21.19;73.06
74065;BME280;62421;51.412;5.432;2023-06-26T07:15:10;101453.06;;;21.21;74.45
74065;BME280;62421;51.412;5.432;2023-06-26T07:17:35;101452.88;;;21.22;73.83
74065;BME280;62421;51.412;5.432;2023-06-26T07:20:03;101462.66;;;21.33;73.34
74065;BME280;62421;51.412;5.432;2023-06-26T07:22:36;101459.88;;;21.51;72.50
74065;BME280;62421;51.412;5.432;2023-06-26T07:25:01;101458.53;;;21.63;71.81
74065;BME280;62421;51.412;5.432;2023-06-26T07:27:27;101477.94;;;21.86;71.27
74065;BME280;62421;51.412;5.432;2023-06-26T07:29:52;101464.13;;;22.04;70.14
74065;BME280;62421;51.412;5.432;2023-06-26T07:32:17;101468.41;;;22.15;70.00
74065;BME280;62421;51.412;5.432;2023-06-26T07:34:43;101472.88;;;22.16;69.28
74065;BME280;62421;51.412;5.432;2023-06-26T07:37:08;101479.09;;;22.26;68.22
74065;BME280;62421;51.412;5.432;2023-06-26T07:39:33;101479.94;;;22.27;68.63
74065;BME280;62421;51.412;5.432;2023-06-26T07:41:59;101487.06;;;22.20;69.25
74065;BME280;62421;51.412;5.432;2023-06-26T07:44:24;101487.56;;;22.07;69.01
74065;BME280;62421;51.412;5.432;2023-06-26T07:46:50;101496.81;;;22.14;69.25
74065;BME280;62421;51.412;5.432;2023-06-26T07:49:15;101495.16;;;22.29;69.54
74065;BME280;62421;51.412;5.432;2023-06-26T07:51:41;101492.78;;;22.26;68.88
74065;BME280;62421;51.412;5.432;2023-06-26T07:54:06;101499.25;;;22.25;67.86
74065;BME280;62421;51.412;5.432;2023-06-26T07:56:35;101508.69;;;22.39;68.59
74065;BME280;62421;51.412;5.432;2023-06-26T07:59:16;101508.34;;;22.42;66.70
74065;BME280;62421;51.412;5.432;2023-06-26T08:01:42;101514.16;;;22.39;68.11
74065;BME280;62421;51.412;5.432;2023-06-26T08:04:07;101515.69;;;22.42;68.04
74065;BME280;62421;51.412;5.432;2023-06-26T08:06:32;101507.31;;;22.52;66.59
74065;BME280;62421;51.412;5.432;2023-06-26T08:08:58;101513.31;;;22.72;64.96
74065;BME280;62421;51.412;5.432;2023-06-26T08:11:23;101506.13;;;22.87;63.59
74065;BME280;62421;51.412;5.432;2023-06-26T08:13:48;101512.81;;;23.09;65.12
74065;BME280;62421;51.412;5.432;2023-06-26T08:16:14;101517.06;;;23.20;64.36
74065;BME280;62421;51.412;5.432;2023-06-26T08:18:39;101514.84;;;23.15;62.27
74065;BME280;62421;51.412;5.432;2023-06-26T08:21:04;101522.75;;;23.02;60.78
74065;BME280;62421;51.412;5.432;2023-06-26T08:23:30;101507.50;;;22.91;61.78
74065;BME280;62421;51.412;5.432;2023-06-26T08:25:55;101516.91;;;23.05;62.39
74065;BME280;62421;51.412;5.432;2023-06-26T08:28:23;101522.56;;;23.03;61.52
74065;BME280;62421;51.412;5.432;2023-06-26T08:30:49;101522.22;;;22.74;62.41
74065;BME280;62421;51.412;5.432;2023-06-26T08:33:14;101522.88;;;22.43;61.84
74065;BME280;62421;51.412;5.432;2023-06-26T08:35:39;101525.41;;;22.28;60.20
74065;BME280;62421;51.412;5.432;2023-06-26T08:38:05;101531.16;;;22.17;59.33
74065;BME280;62421;51.412;5.432;2023-06-26T08:40:30;101528.91;;;22.04;61.18
74065;BME280;62421;51.412;5.432;2023-06-26T08:42:57;101523.97;;;22.07;60.03
74065;BME280;62421;51.412;5.432;2023-06-26T08:45:22;101537.13;;;22.12;57.20
74065;BME280;62421;51.412;5.432;2023-06-26T08:47:51;101537.47;;;22.09;57.16
74065;BME280;62421;51.412;5.432;2023-06-26T08:50:19;101537.66;;;22.07;57.23
74065;BME280;62421;51.412;5.432;2023-06-26T08:52:56;101540.69;;;22.04;58.68
74065;BME280;62421;51.412;5.432;2023-06-26T08:55:27;101542.03;;;21.92;59.52
74065;BME280;62421;51.412;5.432;2023-06-26T08:57:54;101532.66;;;21.95;59.34
74065;BME280;62421;51.412;5.432;2023-06-26T09:00:19;101543.28;;;22.06;59.59
74065;BME280;62421;51.412;5.432;2023-06-26T09:02:45;101540.19;;;22.09;58.43
74065;BME280;62421;51.412;5.432;2023-06-26T09:05:11;101547.41;;;22.18;58.77
74065;BME280;62421;51.412;5.432;2023-06-26T09:07:36;101549.34;;;22.34;58.98
74065;BME280;62421;51.412;5.432;2023-06-26T09:10:02;101540.84;;;22.37;58.64
74065;BME280;62421;51.412;5.432;2023-06-26T09:12:28;101541.13;;;22.26;58.89
74065;BME280;62421;51.412;5.432;2023-06-26T09:14:54;101540.31;;;22.34;58.96
74065;BME280;62421;51.412;5.432;2023-06-26T09:17:33;101548.19;;;22.45;58.69
74065;BME280;62421;51.412;5.432;2023-06-26T09:19:59;101553.34;;;22.64;56.50
74065;BME280;62421;51.412;5.432;2023-06-26T09:22:24;101544.09;;;22.90;55.43
74065;BME280;62421;51.412;5.432;2023-06-26T09:24:50;101554.72;;;22.93;54.14
74065;BME280;62421;51.412;5.432;2023-06-26T09:27:16;101561.03;;;22.77;54.14
74065;BME280;62421;51.412;5.432;2023-06-26T09:29:42;101558.78;;;22.56;53.59
74065;BME280;62421;51.412;5.432;2023-06-26T09:32:08;101562.03;;;22.43;53.77
74065;BME280;62421;51.412;5.432;2023-06-26T09:34:35;101565.94;;;22.41;53.94
74065;BME280;62421;51.412;5.432;2023-06-26T09:37:00;101572.28;;;22.33;52.93
74065;BME280;62421;51.412;5.432;2023-06-26T09:39:30;101573.13;;;22.34;54.00
74065;BME280;62421;51.412;5.432;2023-06-26T09:41:56;101580.50;;;22.41;53.84
74065;BME280;62421;51.412;5.432;2023-06-26T09:44:23;101584.13;;;22.66;54.57
74065;BME280;62421;51.412;5.432;2023-06-26T09:46:48;101594.59;;;22.96;52.57
74065;BME280;62421;51.412;5.432;2023-06-26T09:49:14;101599.22;;;22.95;49.18
74065;BME280;62421;51.412;5.432;2023-06-26T09:51:41;101603.31;;;22.83;50.57
74065;BME280;62421;51.412;5.432;2023-06-26T09:54:07;101605.19;;;22.90;50.74
74065;BME280;62421;51.412;5.432;2023-06-26T09:56:33;101597.72;;;23.01;51.23
74065;BME280;62421;51.412;5.432;2023-06-26T09:59:00;101601.81;;;23.13;52.64
74065;BME280;62421;51.412;5.432;2023-06-26T10:01:27;101583.50;;;23.22;51.00
74065;BME280;62421;51.412;5.432;2023-06-26T10:03:56;101592.03;;;23.19;48.92
74065;BME280;62421;51.412;5.432;2023-06-26T10:06:31;101597.84;;;22.99;49.28
74065;BME280;62421;51.412;5.432;2023-06-26T10:08:59;101600.41;;;22.68;48.75
74065;BME280;62421;51.412;5.432;2023-06-26T10:11:32;101593.69;;;22.62;52.03
74065;BME280;62421;51.412;5.432;2023-06-26T10:14:01;101603.50;;;22.89;49.46
74065;BME280;62421;51.412;5.432;2023-06-26T10:16:30;101605.25;;;23.23;44.91
74065;BME280;62421;51.412;5.432;2023-06-26T10:19:01;101606.94;;;23.41;45.62
74065;BME280;62421;51.412;5.432;2023-06-26T10:21:29;101602.78;;;23.53;44.12
74065;BME280;62421;51.412;5.432;2023-06-26T10:23:56;101593.00;;;23.59;42.87
74065;BME280;62421;51.412;5.432;2023-06-26T10:26:22;101601.06;;;23.68;42.68
74065;BME280;62421;51.412;5.432;2023-06-26T10:28:50;101606.88;;;23.82;43.30
74065;BME280;62421;51.412;5.432;2023-06-26T10:31:20;101592.13;;;23.83;42.27
74065;BME280;62421;51.412;5.432;2023-06-26T10:33:47;101591.94;;;23.84;44.52
74065;BME280;62421;51.412;5.432;2023-06-26T10:36:17;101597.03;;;23.96;44.52
74065;BME280;62421;51.412;5.432;2023-06-26T10:38:55;101600.69;;;23.88;45.13
74065;BME280;62421;51.412;5.432;2023-06-26T10:41:21;101615.09;;;23.74;45.00
74065;BME280;62421;51.412;5.432;2023-06-26T10:43:52;101611.50;;;23.65;46.76
74065;BME280;62421;51.412;5.432;2023-06-26T10:46:48;101614.75;;;23.77;46.87
74065;BME280;62421;51.412;5.432;2023-06-26T10:49:14;101623.31;;;23.74;44.70
74065;BME280;62421;51.412;5.432;2023-06-26T10:51:46;101629.66;;;23.74;44.95
74065;BME280;62421;51.412;5.432;2023-06-26T10:54:15;101624.00;;;23.84;44.98
74065;BME280;62421;51.412;5.432;2023-06-26T10:59:18;101621.00;;;24.10;41.36
74065;BME280;62421;51.412;5.432;2023-06-26T11:01:57;101625.00;;;24.30;41.76
74065;BME280;62421;51.412;5.432;2023-06-26T11:04:50;101635.59;;;24.42;42.79
74065;BME280;62421;51.412;5.432;2023-06-26T11:07:19;101635.56;;;24.10;41.25
74065;BME280;62421;51.412;5.432;2023-06-26T11:09:58;101624.34;;;23.81;42.72
74065;BME280;62421;51.412;5.432;2023-06-26T11:12:42;101638.91;;;23.73;42.24
74065;BME280;62421;51.412;5.432;2023-06-26T11:15:09;101631.56;;;23.65;40.38
74065;BME280;62421;51.412;5.432;2023-06-26T11:17:36;101625.25;;;23.40;40.08
74065;BME280;62421;51.412;5.432;2023-06-26T11:20:03;101652.50;;;23.25;41.56
74065;BME280;62421;51.412;5.432;2023-06-26T11:22:30;101653.69;;;23.23;41.70
74065;BME280;62421;51.412;5.432;2023-06-26T11:24:59;101644.63;;;23.22;43.06
74065;BME280;62421;51.412;5.432;2023-06-26T11:27:24;101644.28;;;23.25;43.50
74065;BME280;62421;51.412;5.432;2023-06-26T11:29:55;101653.53;;;23.49;43.82
74065;BME280;62421;51.412;5.432;2023-06-26T11:32:20;101652.97;;;23.86;44.32
74065;BME280;62421;51.412;5.432;2023-06-26T11:34:47;101649.22;;;24.27;43.18
74065;BME280;62421;51.412;5.432;2023-06-26T11:37:16;101653.69;;;24.67;42.76
74065;BME280;62421;51.412;5.432;2023-06-26T11:39:42;101650.47;;;24.87;42.98
74065;BME280;62421;51.412;5.432;2023-06-26T11:42:07;101646.13;;;24.92;40.37
74065;BME280;62421;51.412;5.432;2023-06-26T11:44:40;101662.03;;;24.97;40.79
74065;BME280;62421;51.412;5.432;2023-06-26T11:47:06;101674.47;;;24.93;39.15
74065;BME280;62421;51.412;5.432;2023-06-26T11:49:31;101679.94;;;24.93;41.06
74065;BME280;62421;51.412;5.432;2023-06-26T11:51:57;101688.19;;;24.93;40.32
74065;BME280;62421;51.412;5.432;2023-06-26T11:54:26;101678.00;;;25.02;40.50
74065;BME280;62421;51.412;5.432;2023-06-26T11:56:56;101695.44;;;24.86;40.95
74065;BME280;62421;51.412;5.432;2023-06-26T11:59:22;101696.16;;;24.48;42.77
74065;BME280;62421;51.412;5.432;2023-06-26T12:01:49;101694.84;;;24.20;42.61
74065;BME280;62421;51.412;5.432;2023-06-26T12:04:17;101694.84;;;24.20;42.27
74065;BME280;62421;51.412;5.432;2023-06-26T12:06:52;101707.16;;;24.32;41.93
74065;BME280;62421;51.412;5.432;2023-06-26T12:09:22;101708.06;;;24.24;41.03
74065;BME280;62421;51.412;5.432;2023-06-26T12:11:52;101712.22;;;24.04;42.78
74065;BME280;62421;51.412;5.432;2023-06-26T12:14:19;101695.75;;;24.04;43.57
74065;BME280;62421;51.412;5.432;2023-06-26T12:16:45;101701.16;;;24.28;42.05
74065;BME280;62421;51.412;5.432;2023-06-26T12:19:11;101691.19;;;24.44;41.90
74065;BME280;62421;51.412;5.432;2023-06-26T12:24:02;101696.31;;;24.39;43.27
74065;BME280;62421;51.412;5.432;2023-06-26T12:26:27;101697.94;;;24.64;41.25
74065;BME280;62421;51.412;5.432;2023-06-26T12:29:15;101693.53;;;24.86;41.43
74065;BME280;62421;51.412;5.432;2023-06-26T12:31:44;101697.06;;;24.95;40.37
74065;BME280;62421;51.412;5.432;2023-06-26T12:34:19;101703.56;;;25.02;40.91
74065;BME280;62421;51.412;5.432;2023-06-26T12:39:12;101705.06;;;24.50;39.48
74065;BME280;62421;51.412;5.432;2023-06-26T12:41:48;101712.81;;;24.30;40.63
74065;BME280;62421;51.412;5.432;2023-06-26T12:44:18;101712.06;;;24.05;38.89
74065;BME280;62421;51.412;5.432;2023-06-26T12:46:46;101718.59;;;23.39;40.62
74065;BME280;62421;51.412;5.432;2023-06-26T12:49:12;101722.34;;;23.29;40.50
74065;BME280;62421;51.412;5.432;2023-06-26T12:51:37;101721.16;;;23.16;41.02
74065;BME280;62421;51.412;5.432;2023-06-26T12:54:03;101718.75;;;23.21;41.25
74065;BME280;62421;51.412;5.432;2023-06-26T12:56:28;101715.16;;;23.53;41.13
74065;BME280;62421;51.412;5.432;2023-06-26T12:58:53;101712.06;;;23.97;42.44
74065;BME280;62421;51.412;5.432;2023-06-26T13:01:19;101704.91;;;24.44;40.04
74065;BME280;62421;51.412;5.432;2023-06-26T13:03:45;101719.66;;;24.82;39.57